createdAt,value
2023-01-19T00:00:48.586Z,98879.38
2023-01-19T00:03:20.006Z,98891.63
2023-01-19T00:05:51.641Z,98897.67
2023-01-19T00:08:23.113Z,98897.48
2023-01-19T00:10:54.662Z,98896.55
2023-01-19T00:13:26.339Z,98899.66
2023-01-19T00:15:58.836Z,98896.64
2023-01-19T00:18:30.865Z,98900.42
2023-01-19T00:21:02.227Z,98903.79
2023-01-19T00:23:33.714Z,98899.30
2023-01-19T00:26:05.276Z,98897.77
2023-01-19T00:28:36.841Z,98895.42
2023-01-19T00:31:08.518Z,98904.98
2023-01-19T00:33:39.911Z,98914.36
2023-01-19T00:36:13.176Z,98919.04
2023-01-19T00:38:44.914Z,98927.82
2023-01-19T00:41:16.282Z,98939.58
2023-01-19T00:43:47.903Z,98941.46
2023-01-19T00:46:19.338Z,98941.68
2023-01-19T00:48:50.886Z,98946.97
2023-01-19T00:51:22.495Z,98942.24
2023-01-19T00:53:55.329Z,98936.85
2023-01-19T00:56:27.408Z,98932.21
2023-01-19T00:58:58.750Z,98932.54
2023-01-19T01:01:45.859Z,98928.97
2023-01-19T01:04:18.050Z,98937.91
2023-01-19T01:06:49.472Z,98940.79
2023-01-19T01:09:21.140Z,98933.14
2023-01-19T01:11:52.983Z,98930.31
2023-01-19T01:14:25.273Z,98928.70
2023-01-19T01:16:57.842Z,98921.98
2023-01-19T01:19:29.570Z,98924.38
2023-01-19T01:22:01.077Z,98920.64
2023-01-19T01:24:32.510Z,98917.61
2023-01-19T01:27:04.070Z,98913.53
2023-01-19T01:29:36.015Z,98912.56
2023-01-19T01:32:07.578Z,98917.73
2023-01-19T01:34:40.831Z,98910.81
2023-01-19T01:37:12.360Z,98905.23
2023-01-19T01:39:43.797Z,98898.02
2023-01-19T01:42:21.402Z,98897.04
2023-01-19T01:44:56.608Z,98894.67
2023-01-19T01:47:33.745Z,98900.67
2023-01-19T01:50:10.638Z,98902.80
2023-01-19T01:53:07.232Z,98903.23
2023-01-19T01:55:43.412Z,98897.34
2023-01-19T01:58:18.536Z,98900.36
2023-01-19T02:01:07.355Z,98902.27
2023-01-19T02:03:39.372Z,98906.09
2023-01-19T02:06:12.268Z,98906.53
2023-01-19T02:09:07.083Z,98905.60
2023-01-19T02:11:56.376Z,98909.05
2023-01-19T02:14:28.005Z,98916.20
2023-01-19T02:16:59.779Z,98919.45
2023-01-19T02:19:37.784Z,98923.45
2023-01-19T02:22:14.417Z,98924.39
2023-01-19T02:24:46.623Z,98924.02
2023-01-19T02:27:18.531Z,98923.58
2023-01-19T02:29:49.960Z,98926.39
2023-01-19T02:32:21.547Z,98925.05
2023-01-19T02:34:53.636Z,98925.42
2023-01-19T02:37:26.090Z,98922.63
2023-01-19T02:40:02.453Z,98920.73
2023-01-19T02:42:38.970Z,98922.30
2023-01-19T02:45:12.970Z,98915.47
2023-01-19T02:47:48.397Z,98917.28
2023-01-19T02:50:53.703Z,98920.23
2023-01-19T02:53:46.191Z,98912.95
2023-01-19T02:56:49.879Z,98909.92
2023-01-19T02:59:44.462Z,98909.15
2023-01-19T03:02:27.684Z,98910.09
2023-01-19T03:05:10.219Z,98909.31
2023-01-19T03:07:52.463Z,98910.48
2023-01-19T03:10:33.882Z,98908.44
2023-01-19T03:13:12.661Z,98911.27
2023-01-19T03:15:50.217Z,98918.46
2023-01-19T03:18:27.327Z,98920.94
2023-01-19T03:21:01.386Z,98926.85
2023-01-19T03:23:36.767Z,98935.81
2023-01-19T03:26:12.895Z,98931.56
2023-01-19T03:28:47.724Z,98944.91
2023-01-19T03:31:18.771Z,98944.14
2023-01-19T03:33:54.350Z,98938.96
2023-01-19T03:36:31.553Z,98939.27
2023-01-19T03:39:06.754Z,98941.05
2023-01-19T03:41:41.110Z,98944.77
2023-01-19T03:44:13.005Z,98940.65
2023-01-19T03:46:46.001Z,98936.04
2023-01-19T03:49:18.009Z,98933.90
2023-01-19T03:51:49.518Z,98928.67
2023-01-19T03:54:20.932Z,98939.48
2023-01-19T03:56:52.794Z,98945.83
2023-01-19T03:59:24.478Z,98946.09
2023-01-19T04:01:56.238Z,98955.99
2023-01-19T04:04:27.688Z,98960.82
2023-01-19T04:06:59.237Z,98965.02
2023-01-19T04:09:30.778Z,98971.48
2023-01-19T04:12:04.272Z,98977.81
2023-01-19T04:14:35.955Z,98975.14
2023-01-19T04:17:07.316Z,98968.80
2023-01-19T04:19:38.996Z,98965.30
2023-01-19T04:22:11.073Z,98970.40
2023-01-19T04:24:42.438Z,98977.64
2023-01-19T04:27:15.348Z,98974.64
2023-01-19T04:29:46.836Z,98969.39
2023-01-19T04:32:18.505Z,98972.47
2023-01-19T04:35:27.712Z,98982.48
2023-01-19T04:38:01.058Z,98977.66
2023-01-19T04:40:32.469Z,98975.92
2023-01-19T04:43:04.127Z,98977.70
2023-01-19T04:45:36.853Z,98981.61
2023-01-19T04:48:08.928Z,98993.11
2023-01-19T04:50:42.433Z,98997.31
2023-01-19T04:53:16.544Z,98997.29
2023-01-19T04:55:48.345Z,98995.91
2023-01-19T04:58:19.735Z,98999.85
2023-01-19T05:00:52.423Z,99000.02
2023-01-19T05:03:25.707Z,99000.36
2023-01-19T05:05:59.927Z,98999.23
2023-01-19T05:08:31.411Z,99006.09
2023-01-19T05:11:02.922Z,99007.60
2023-01-19T05:13:35.120Z,99010.64
2023-01-19T05:16:07.488Z,99014.95
2023-01-19T05:18:39.134Z,99022.34
2023-01-19T05:21:11.000Z,99025.09
2023-01-19T05:23:42.567Z,99035.00
2023-01-19T05:26:14.424Z,99046.41
2023-01-19T05:28:45.910Z,99049.45
2023-01-19T05:31:18.791Z,99053.98
2023-01-19T05:33:51.069Z,99056.65
2023-01-19T05:36:22.531Z,99063.39
2023-01-19T05:38:53.891Z,99061.92
2023-01-19T05:41:25.430Z,99061.75
2023-01-19T05:43:56.903Z,99056.08
2023-01-19T05:46:28.453Z,99047.29
2023-01-19T05:49:01.917Z,99044.96
2023-01-19T05:51:38.122Z,99048.25
2023-01-19T05:54:10.306Z,99053.45
2023-01-19T05:56:41.690Z,99066.82
2023-01-19T05:59:13.898Z,99070.98
2023-01-19T06:01:45.620Z,99077.40
2023-01-19T06:04:17.025Z,99085.33
2023-01-19T06:06:50.492Z,99094.30
2023-01-19T06:09:21.936Z,99097.54
2023-01-19T06:11:54.518Z,99102.61
2023-01-19T06:14:26.083Z,99116.33
2023-01-19T06:16:57.485Z,99125.38
2023-01-19T06:19:29.421Z,99130.60
2023-01-19T06:22:01.009Z,99129.73
2023-01-19T06:24:33.175Z,99131.29
2023-01-19T06:27:04.697Z,99132.17
2023-01-19T06:29:36.421Z,99132.81
2023-01-19T06:32:08.431Z,99136.77
2023-01-19T06:34:44.063Z,99139.09
2023-01-19T06:37:16.440Z,99141.10
2023-01-19T06:39:47.744Z,99141.48
2023-01-19T06:42:19.167Z,99140.60
2023-01-19T06:44:50.787Z,99143.31
2023-01-19T06:47:22.267Z,99143.77
2023-01-19T06:49:53.676Z,99141.40
2023-01-19T06:52:25.110Z,99138.90
2023-01-19T06:54:56.638Z,99135.16
2023-01-19T06:57:28.222Z,99135.83
2023-01-19T07:00:01.825Z,99134.59
2023-01-19T07:02:33.305Z,99139.91
2023-01-19T07:05:07.123Z,99140.80
2023-01-19T07:07:39.974Z,99141.23
2023-01-19T07:10:13.331Z,99135.91
2023-01-19T07:12:46.814Z,99134.93
2023-01-19T07:15:19.862Z,99133.02
2023-01-19T07:17:51.758Z,99138.64
2023-01-19T07:20:23.477Z,99137.64
2023-01-19T07:22:59.181Z,99141.44
2023-01-19T07:25:30.785Z,99149.48
2023-01-19T07:28:03.115Z,99152.13
2023-01-19T07:30:34.872Z,99147.85
2023-01-19T07:33:06.410Z,99144.68
2023-01-19T07:35:37.947Z,99149.16
2023-01-19T07:38:09.425Z,99162.98
2023-01-19T07:40:40.777Z,99168.77
2023-01-19T07:43:12.234Z,99173.43
2023-01-19T07:45:45.280Z,99172.59
2023-01-19T07:48:16.831Z,99175.52
2023-01-19T07:50:48.688Z,99182.77
2023-01-19T07:53:20.302Z,99185.20
2023-01-19T07:55:57.977Z,99186.32
2023-01-19T07:58:29.606Z,99203.59
2023-01-19T08:01:02.480Z,99202.33
2023-01-19T08:03:33.893Z,99206.90
2023-01-19T08:06:06.398Z,99202.90
2023-01-19T08:08:38.102Z,99201.45
2023-01-19T08:11:10.138Z,99203.23
2023-01-19T08:13:41.716Z,99206.36
2023-01-19T08:16:13.414Z,99202.55
2023-01-19T08:18:45.126Z,99193.02
2023-01-19T08:21:17.086Z,99187.08
2023-01-19T08:23:55.680Z,99186.76
2023-01-19T08:26:30.786Z,99186.98
2023-01-19T08:29:03.904Z,99190.55
2023-01-19T08:31:38.241Z,99187.95
2023-01-19T08:34:10.182Z,99188.40
2023-01-19T08:36:41.799Z,99190.36
2023-01-19T08:39:14.442Z,99191.91
2023-01-19T08:41:45.892Z,99193.05
2023-01-19T08:44:17.505Z,99190.00
2023-01-19T08:46:49.112Z,99188.52
2023-01-19T08:49:20.934Z,99189.71
2023-01-19T08:51:52.392Z,99187.21
2023-01-19T08:54:24.481Z,99182.81
2023-01-19T08:56:57.126Z,99179.90
2023-01-19T08:59:28.662Z,99175.68
2023-01-19T09:02:00.214Z,99175.26
2023-01-19T09:04:33.244Z,99167.93
2023-01-19T09:09:40.554Z,99153.60
2023-01-19T09:12:12.151Z,99163.45
2023-01-19T09:14:43.835Z,99168.34
2023-01-19T09:17:18.319Z,99175.79
2023-01-19T09:19:49.886Z,99183.18
2023-01-19T09:22:21.349Z,99188.98
2023-01-19T09:24:53.713Z,99192.77
2023-01-19T09:27:25.203Z,99198.86
2023-01-19T09:29:56.587Z,99198.83
2023-01-19T09:32:29.709Z,99196.54
2023-01-19T09:35:01.274Z,99200.45
2023-01-19T09:37:32.892Z,99203.90
2023-01-19T09:40:05.110Z,99209.96
2023-01-19T09:42:44.995Z,99211.70
2023-01-19T09:45:21.246Z,99215.59
2023-01-19T09:47:53.905Z,99204.22
2023-01-19T09:50:30.351Z,99208.29
2023-01-19T09:53:11.710Z,99204.66
2023-01-19T09:55:44.147Z,99201.02
2023-01-19T09:58:19.528Z,99189.81
2023-01-19T10:00:58.707Z,99194.52
2023-01-19T10:03:30.777Z,99190.42
2023-01-19T10:06:06.417Z,99187.25
2023-01-19T10:08:43.129Z,99183.46
2023-01-19T10:11:31.853Z,99181.38
2023-01-19T10:14:14.953Z,99182.52
2023-01-19T10:16:55.305Z,99179.15
2023-01-19T10:19:38.128Z,99177.11
2023-01-19T10:22:27.475Z,99170.80
2023-01-19T10:25:01.745Z,99173.48
2023-01-19T10:27:37.904Z,99172.77
2023-01-19T10:30:16.898Z,99179.30
2023-01-19T10:32:48.398Z,99178.50
2023-01-19T10:35:24.849Z,99177.12
2023-01-19T10:38:00.298Z,99182.70
2023-01-19T10:40:36.714Z,99182.52
2023-01-19T10:43:39.204Z,99185.28
2023-01-19T10:46:18.714Z,99190.36
2023-01-19T10:48:52.107Z,99193.50
2023-01-19T10:51:24.141Z,99201.47
2023-01-19T10:54:13.462Z,99205.23
2023-01-19T10:56:45.097Z,99205.31
2023-01-19T10:59:34.578Z,99200.63
2023-01-19T11:02:19.834Z,99208.00
2023-01-19T11:04:53.373Z,99205.14
2023-01-19T11:07:30.892Z,99208.29
2023-01-19T11:10:26.173Z,99205.70
2023-01-19T11:13:07.808Z,99196.52
2023-01-19T11:15:46.300Z,99192.85
2023-01-19T11:18:32.307Z,99192.96
2023-01-19T11:21:06.776Z,99183.55
2023-01-19T11:23:43.309Z,99178.35
2023-01-19T11:26:26.189Z,99174.03
2023-01-19T11:28:59.240Z,99170.52
2023-01-19T11:31:38.583Z,99164.95
2023-01-19T11:34:28.236Z,99162.86
2023-01-19T11:37:04.829Z,99160.84
2023-01-19T11:39:49.540Z,99157.88
2023-01-19T11:42:23.019Z,99155.17
2023-01-19T11:45:04.730Z,99154.42
2023-01-19T11:47:43.169Z,99158.70
2023-01-19T11:50:25.727Z,99153.23
2023-01-19T11:53:02.983Z,99149.42
2023-01-19T11:55:41.490Z,99146.44
2023-01-19T11:58:18.705Z,99151.50
2023-01-19T12:00:55.627Z,99155.70
2023-01-19T12:03:31.851Z,99148.42
2023-01-19T12:06:07.592Z,99144.46
2023-01-19T12:08:43.534Z,99145.04
2023-01-19T12:11:19.915Z,99147.23
2023-01-19T12:13:54.217Z,99147.98
2023-01-19T12:16:28.504Z,99142.00
2023-01-19T12:19:05.285Z,99139.73
2023-01-19T12:21:37.210Z,99137.06
2023-01-19T12:24:17.589Z,99136.67
2023-01-19T12:26:54.582Z,99139.27
2023-01-19T12:29:30.326Z,99132.50
2023-01-19T12:32:33.701Z,99133.39
2023-01-19T12:35:05.243Z,99127.70
2023-01-19T12:37:41.199Z,99121.19
2023-01-19T12:40:35.742Z,99119.33
2023-01-19T12:43:09.283Z,99119.34
2023-01-19T12:45:41.235Z,99126.58
2023-01-19T12:48:28.481Z,99127.56
2023-01-19T12:50:59.895Z,99127.16
2023-01-19T12:53:32.156Z,99130.75
2023-01-19T12:56:10.341Z,99128.23
2023-01-19T12:58:49.351Z,99131.95
2023-01-19T13:01:25.168Z,99125.00
2023-01-19T13:04:06.922Z,99121.09
2023-01-19T13:07:14.016Z,99123.59
2023-01-19T13:09:45.385Z,99120.98
2023-01-19T13:12:27.838Z,99121.16
2023-01-19T13:15:35.622Z,99122.60
2023-01-19T13:18:09.893Z,99127.77
2023-01-19T13:20:49.628Z,99128.02
2023-01-19T13:23:29.400Z,99130.93
2023-01-19T13:26:07.064Z,99138.54
2023-01-19T13:28:46.837Z,99146.04
2023-01-19T13:31:19.381Z,99151.23
2023-01-19T13:33:54.433Z,99153.57
2023-01-19T13:36:33.257Z,99155.96
2023-01-19T13:39:07.997Z,99158.01
2023-01-19T13:41:40.513Z,99162.61
2023-01-19T13:44:19.747Z,99169.06
2023-01-19T13:46:51.894Z,99168.55
2023-01-19T13:49:28.655Z,99165.50
2023-01-19T13:52:14.043Z,99164.64
2023-01-19T13:54:56.318Z,99160.44
2023-01-19T13:57:33.035Z,99160.50
2023-01-19T14:00:21.302Z,99154.27
2023-01-19T14:02:59.148Z,99154.13
2023-01-19T14:05:32.993Z,99158.03
2023-01-19T14:08:13.693Z,99155.63
2023-01-19T14:10:47.421Z,99153.11
2023-01-19T14:13:21.851Z,99155.91
2023-01-19T14:15:58.035Z,99158.92
2023-01-19T14:18:31.999Z,99160.20
2023-01-19T14:21:06.454Z,99167.83
2023-01-19T14:23:49.908Z,99169.36
2023-01-19T14:26:49.333Z,99166.78
2023-01-19T14:29:25.886Z,99171.16
2023-01-19T14:32:13.051Z,99175.96
2023-01-19T14:34:46.257Z,99177.09
2023-01-19T14:37:24.609Z,99185.13
2023-01-19T14:40:00.674Z,99180.48
2023-01-19T14:42:34.988Z,99186.18
2023-01-19T14:45:15.606Z,99180.14
2023-01-19T14:47:54.578Z,99179.28
2023-01-19T14:50:28.872Z,99179.06
2023-01-19T14:53:04.807Z,99188.27
2023-01-19T14:55:44.774Z,99189.21
2023-01-19T14:58:17.620Z,99188.64
2023-01-19T15:00:50.039Z,99188.53
2023-01-19T15:03:24.970Z,99190.29
2023-01-19T15:06:00.462Z,99189.14
2023-01-19T15:08:34.733Z,99192.95
2023-01-19T15:11:11.859Z,99191.05
2023-01-19T15:13:45.297Z,99190.54
2023-01-19T15:16:28.105Z,99194.36
2023-01-19T15:19:04.948Z,99196.56
2023-01-19T15:21:49.760Z,99184.67
2023-01-19T15:24:32.149Z,99193.24
2023-01-19T15:27:06.148Z,99206.04
2023-01-19T15:29:42.265Z,99206.30
2023-01-19T15:32:20.165Z,99205.88
2023-01-19T15:34:54.490Z,99213.66
2023-01-19T15:37:36.281Z,99209.52
2023-01-19T15:40:14.419Z,99212.27
2023-01-19T15:42:52.011Z,99215.61
2023-01-19T15:45:40.811Z,99213.72
2023-01-19T15:48:15.127Z,99211.66
2023-01-19T15:51:02.089Z,99212.20
2023-01-19T15:53:40.359Z,99215.74
2023-01-19T15:56:18.405Z,99216.80
2023-01-19T15:58:58.439Z,99223.02
2023-01-19T16:01:38.066Z,99221.73
2023-01-19T16:04:18.027Z,99219.38
2023-01-19T16:07:06.171Z,99220.40
2023-01-19T16:09:43.025Z,99222.19
2023-01-19T16:12:17.941Z,99224.85
2023-01-19T16:15:10.835Z,99225.22
2023-01-19T16:17:47.905Z,99225.71
2023-01-19T16:20:30.268Z,99228.59
2023-01-19T16:23:17.324Z,99229.34
2023-01-19T16:26:03.697Z,99225.89
2023-01-19T16:28:38.324Z,99233.19
2023-01-19T16:31:17.297Z,99234.61
2023-01-19T16:33:51.994Z,99238.59
2023-01-19T16:36:34.730Z,99241.23
2023-01-19T16:39:13.500Z,99242.48
2023-01-19T16:41:49.747Z,99240.11
2023-01-19T16:44:21.923Z,99237.95
2023-01-19T16:46:55.910Z,99234.45
2023-01-19T16:49:36.235Z,99230.91
2023-01-19T16:52:16.715Z,99238.45
2023-01-19T16:54:49.644Z,99236.17
2023-01-19T16:57:21.936Z,99238.52
2023-01-19T17:00:11.679Z,99238.24
2023-01-19T17:02:58.431Z,99233.63
2023-01-19T17:05:31.413Z,99230.17
2023-01-19T17:08:14.613Z,99229.39
2023-01-19T17:10:52.117Z,99230.50
2023-01-19T17:13:39.660Z,99230.70
2023-01-19T17:16:23.377Z,99225.66
2023-01-19T17:19:10.105Z,99224.42
2023-01-19T17:21:52.003Z,99219.67
2023-01-19T17:24:25.216Z,99219.83
2023-01-19T17:27:01.393Z,99214.73
2023-01-19T17:29:43.430Z,99216.60
2023-01-19T17:32:24.994Z,99210.90
2023-01-19T17:35:04.613Z,99218.36
2023-01-19T17:37:49.671Z,99223.56
2023-01-19T17:40:33.815Z,99222.95
2023-01-19T17:43:18.963Z,99227.86
2023-01-19T17:45:50.068Z,99224.11
2023-01-19T17:48:38.500Z,99222.90
2023-01-19T17:51:15.439Z,99225.47
2023-01-19T17:53:53.748Z,99224.59
2023-01-19T17:56:33.250Z,99222.17
2023-01-19T17:59:17.090Z,99223.61
2023-01-19T18:02:09.038Z,99227.98
2023-01-19T18:05:27.675Z,99225.15
2023-01-19T18:08:09.690Z,99225.63
2023-01-19T18:11:08.231Z,99221.89
2023-01-19T18:13:54.285Z,99225.30
2023-01-19T18:16:37.832Z,99230.72
2023-01-19T18:19:23.563Z,99224.80
2023-01-19T18:22:06.523Z,99219.56
2023-01-19T18:25:11.228Z,99221.58
2023-01-19T18:28:04.348Z,99221.55
2023-01-19T18:31:16.601Z,99227.04
2023-01-19T18:33:56.473Z,99222.33
2023-01-19T18:36:47.681Z,99222.39
2023-01-19T18:39:34.018Z,99230.55
2023-01-19T18:42:15.907Z,99231.92
2023-01-19T18:44:57.767Z,99233.28
2023-01-19T18:47:56.299Z,99233.11
2023-01-19T18:50:34.515Z,99233.40
2023-01-19T18:53:18.024Z,99238.08
2023-01-19T18:56:17.611Z,99238.45
2023-01-19T18:58:57.423Z,99241.67
2023-01-19T19:01:43.893Z,99236.60
2023-01-19T19:04:42.754Z,99238.38
2023-01-19T19:07:30.903Z,99242.07
2023-01-19T19:10:27.810Z,99240.30
2023-01-19T19:13:08.289Z,99238.56
2023-01-19T19:15:45.727Z,99243.13
2023-01-19T19:18:25.007Z,99249.87
2023-01-19T19:21:16.794Z,99256.23
2023-01-19T19:24:14.479Z,99254.36
2023-01-19T19:27:12.045Z,99254.95
2023-01-19T19:29:50.052Z,99261.77
2023-01-19T19:32:48.891Z,99263.80
2023-01-19T19:35:43.939Z,99271.82
2023-01-19T19:38:39.502Z,99264.42
2023-01-19T19:41:14.451Z,99264.92
2023-01-19T19:43:58.070Z,99270.30
2023-01-19T19:46:44.001Z,99266.76
2023-01-19T19:49:42.208Z,99271.30
2023-01-19T19:55:31.337Z,99275.26
2023-01-19T19:58:12.406Z,99280.11
2023-01-19T20:00:50.404Z,99280.52
2023-01-19T20:03:49.904Z,99284.41
2023-01-19T20:07:06.867Z,99283.63
2023-01-19T20:09:54.563Z,99286.59
2023-01-19T20:12:27.843Z,99288.41
2023-01-19T20:15:01.042Z,99289.50
2023-01-19T20:17:36.222Z,99288.54
2023-01-19T20:20:16.265Z,99280.39
2023-01-19T20:22:57.773Z,99283.11
2023-01-19T20:25:36.872Z,99287.05
2023-01-19T20:28:15.564Z,99287.10
2023-01-19T20:30:49.848Z,99295.48
2023-01-19T20:33:28.306Z,99291.24
2023-01-19T20:36:05.152Z,99290.79
2023-01-19T20:38:37.918Z,99293.04
2023-01-19T20:41:15.445Z,99297.45
2023-01-19T20:43:49.755Z,99304.20
2023-01-19T20:46:26.909Z,99310.85
2023-01-19T20:49:00.149Z,99313.26
2023-01-19T20:51:32.995Z,99315.42
2023-01-19T20:54:06.663Z,99318.27
2023-01-19T20:56:43.945Z,99323.66
2023-01-19T20:59:20.819Z,99327.92
2023-01-19T21:01:55.100Z,99325.78
2023-01-19T21:04:34.411Z,99324.69
2023-01-19T21:07:11.381Z,99327.18
2023-01-19T21:09:46.794Z,99323.73
2023-01-19T21:12:25.994Z,99326.20
2023-01-19T21:15:01.796Z,99329.03
2023-01-19T21:17:50.683Z,99329.02
2023-01-19T21:20:52.660Z,99336.83
2023-01-19T21:23:28.321Z,99343.17
2023-01-19T21:26:08.631Z,99349.77
2023-01-19T21:28:52.411Z,99354.92
2023-01-19T21:31:45.619Z,99361.56
2023-01-19T21:34:24.195Z,99366.95
2023-01-19T21:37:08.664Z,99367.66
2023-01-19T21:39:42.612Z,99376.33
2023-01-19T21:42:18.281Z,99378.28
2023-01-19T21:44:50.411Z,99384.90
2023-01-19T21:47:24.328Z,99382.08
2023-01-19T21:50:04.960Z,99387.55
2023-01-19T21:52:36.951Z,99383.37
2023-01-19T21:55:14.379Z,99389.34
2023-01-19T21:57:59.413Z,99396.22
2023-01-19T22:00:32.259Z,99402.83
2023-01-19T22:03:06.170Z,99401.46
2023-01-19T22:05:44.506Z,99410.08
2023-01-19T22:08:18.476Z,99414.56
2023-01-19T22:11:04.947Z,99416.22
2023-01-19T22:13:38.856Z,99401.19
2023-01-19T22:16:14.183Z,99400.73
2023-01-19T22:18:51.679Z,99403.88
2023-01-19T22:21:27.155Z,99409.59
2023-01-19T22:24:07.266Z,99416.09
2023-01-19T22:26:39.566Z,99422.79
2023-01-19T22:29:13.884Z,99429.36
2023-01-19T22:31:49.230Z,99429.80
2023-01-19T22:34:33.625Z,99426.20
2023-01-19T22:37:13.621Z,99422.48
2023-01-19T22:39:47.415Z,99425.69
2023-01-19T22:42:21.449Z,99434.83
2023-01-19T22:44:53.251Z,99433.83
2023-01-19T22:47:36.400Z,99439.55
2023-01-19T22:50:10.650Z,99447.73
2023-01-19T22:52:45.610Z,99453.64
2023-01-19T22:55:22.195Z,99456.50
2023-01-19T22:57:54.314Z,99455.20
2023-01-19T23:00:37.733Z,99461.74
2023-01-19T23:03:11.986Z,99462.62
2023-01-19T23:05:48.119Z,99463.79
2023-01-19T23:08:21.566Z,99465.81
2023-01-19T23:10:59.725Z,99467.72
2023-01-19T23:13:35.042Z,99470.70
2023-01-19T23:16:12.376Z,99472.62
2023-01-19T23:18:45.203Z,99477.98
2023-01-19T23:21:20.967Z,99479.63
2023-01-19T23:24:07.243Z,99481.39
2023-01-19T23:26:43.684Z,99493.52
2023-01-19T23:29:18.412Z,99499.67
2023-01-19T23:31:57.943Z,99496.27
2023-01-19T23:34:31.653Z,99498.71
2023-01-19T23:37:14.423Z,99501.28
2023-01-19T23:39:49.672Z,99493.69
2023-01-19T23:42:30.613Z,99489.83
2023-01-19T23:45:04.602Z,99498.29
2023-01-19T23:47:44.492Z,99496.19
2023-01-19T23:50:24.025Z,99503.31
2023-01-19T23:53:02.388Z,99503.91
2023-01-19T23:55:36.799Z,99514.59
2023-01-19T23:58:11.423Z,99515.88
